createdAt,value
2022-08-19T00:01:38.111Z,68.89
2022-08-19T00:04:06.532Z,68.78
2022-08-19T00:06:33.069Z,68.89
2022-08-19T00:09:01.222Z,68.89
2022-08-19T00:11:28.558Z,69.07
2022-08-19T00:13:56.348Z,69.07
2022-08-19T00:16:26.488Z,68.75
2022-08-19T00:18:54.912Z,69.01
2022-08-19T00:21:21.680Z,68.88
2022-08-19T00:23:48.498Z,69.14
2022-08-19T00:26:15.054Z,69.05
2022-08-19T00:28:42.148Z,69.22
2022-08-19T00:31:08.896Z,69.34
2022-08-19T00:33:35.644Z,69.06
2022-08-19T00:36:05.502Z,69.07
2022-08-19T00:38:35.282Z,68.94
2022-08-19T00:41:05.947Z,69.00
2022-08-19T00:43:32.554Z,69.16
2022-08-19T00:45:59.647Z,69.29
2022-08-19T00:48:26.223Z,69.19
2022-08-19T00:50:54.167Z,69.02
2022-08-19T00:53:22.826Z,69.06
2022-08-19T00:55:51.432Z,69.13
2022-08-19T00:58:20.280Z,69.12
2022-08-19T01:00:47.259Z,69.06
2022-08-19T01:03:17.112Z,68.83
2022-08-19T01:05:45.975Z,68.76
2022-08-19T01:08:12.560Z,68.99
2022-08-19T01:10:43.127Z,69.09
2022-08-19T01:13:09.745Z,69.01
2022-08-19T01:15:57.893Z,69.19
2022-08-19T01:18:24.479Z,68.87
2022-08-19T01:20:51.125Z,69.17
2022-08-19T01:23:19.331Z,69.12
2022-08-19T01:25:50.915Z,68.77
2022-08-19T01:28:33.696Z,69.08
2022-08-19T01:31:01.071Z,68.39
2022-08-19T01:33:34.651Z,69.11
2022-08-19T01:36:06.240Z,69.12
2022-08-19T01:38:37.279Z,68.92
2022-08-19T01:41:12.165Z,69.01
2022-08-19T01:43:38.804Z,68.85
2022-08-19T01:46:25.705Z,68.76
2022-08-19T01:48:52.268Z,69.01
2022-08-19T01:51:18.832Z,68.72
2022-08-19T01:53:48.445Z,69.10
2022-08-19T01:56:15.429Z,69.23
2022-08-19T01:58:48.644Z,69.03
2022-08-19T02:01:15.262Z,69.27
2022-08-19T02:03:42.360Z,68.84
2022-08-19T02:06:08.957Z,68.93
2022-08-19T02:08:37.424Z,68.88
2022-08-19T02:11:04.297Z,69.20
2022-08-19T02:13:31.740Z,68.89
2022-08-19T02:15:58.789Z,69.31
2022-08-19T02:18:28.067Z,68.84
2022-08-19T02:20:54.805Z,68.83
2022-08-19T02:23:21.356Z,68.90
2022-08-19T02:25:48.871Z,69.06
2022-08-19T02:28:18.813Z,68.96
2022-08-19T02:30:45.847Z,68.78
2022-08-19T02:33:12.413Z,69.05
2022-08-19T02:35:43.211Z,68.70
2022-08-19T02:38:27.690Z,68.99
2022-08-19T02:40:59.745Z,68.78
2022-08-19T02:43:26.916Z,68.86
2022-08-19T02:45:53.757Z,69.19
2022-08-19T02:48:21.570Z,68.72
2022-08-19T02:50:53.299Z,69.09
2022-08-19T02:53:20.293Z,69.15
2022-08-19T02:55:47.288Z,69.17
2022-08-19T02:58:14.588Z,69.04
2022-08-19T03:00:46.580Z,68.96
2022-08-19T03:03:13.239Z,68.97
2022-08-19T03:05:55.761Z,69.07
2022-08-19T03:08:23.657Z,69.11
2022-08-19T03:10:50.202Z,68.80
2022-08-19T03:13:18.132Z,68.79
2022-08-19T03:15:45.906Z,68.72
2022-08-19T03:18:12.480Z,68.88
2022-08-19T03:20:50.178Z,68.79
2022-08-19T03:23:17.361Z,68.82
2022-08-19T03:25:46.211Z,68.69
2022-08-19T03:28:13.350Z,68.72
2022-08-19T03:30:43.095Z,68.87
2022-08-19T03:33:10.839Z,68.81
2022-08-19T03:35:46.064Z,68.65
2022-08-19T03:38:12.608Z,68.98
2022-08-19T03:40:39.171Z,68.91
2022-08-19T03:43:06.973Z,69.00
2022-08-19T03:45:33.551Z,68.57
2022-08-19T03:48:00.153Z,68.86
2022-08-19T03:50:26.666Z,68.91
2022-08-19T03:52:53.672Z,68.83
2022-08-19T03:55:20.448Z,68.79
2022-08-19T03:57:48.637Z,68.92
2022-08-19T04:00:16.253Z,68.78
2022-08-19T04:02:58.600Z,68.59
2022-08-19T04:05:30.608Z,68.89
2022-08-19T04:08:00.094Z,68.84
2022-08-19T04:10:28.599Z,68.62
2022-08-19T04:12:55.273Z,68.89
2022-08-19T04:15:21.859Z,68.95
2022-08-19T04:17:48.608Z,68.52
2022-08-19T04:20:15.337Z,68.84
2022-08-19T04:22:42.134Z,68.52
2022-08-19T04:25:09.102Z,69.01
2022-08-19T04:27:35.691Z,68.88
2022-08-19T04:30:02.658Z,68.87
2022-08-19T04:32:29.326Z,68.98
2022-08-19T04:35:02.242Z,68.47
2022-08-19T04:37:44.362Z,68.79
2022-08-19T04:40:29.780Z,68.53
2022-08-19T04:42:57.472Z,68.61
2022-08-19T04:45:24.049Z,68.73
2022-08-19T04:47:58.155Z,68.70
2022-08-19T04:50:27.041Z,68.78
2022-08-19T04:52:54.257Z,68.57
2022-08-19T04:55:21.035Z,68.79
2022-08-19T04:57:47.588Z,68.56
2022-08-19T05:00:14.230Z,68.87
2022-08-19T05:02:40.973Z,68.55
2022-08-19T05:05:07.841Z,68.61
2022-08-19T05:07:34.891Z,68.84
2022-08-19T05:10:01.545Z,68.71
2022-08-19T05:12:29.834Z,69.10
2022-08-19T05:14:57.874Z,68.92
2022-08-19T05:17:28.003Z,69.83
2022-08-19T05:20:14.712Z,72.01
2022-08-19T05:22:42.199Z,73.29
2022-08-19T05:25:13.257Z,74.36
2022-08-19T05:27:40.603Z,75.36
2022-08-19T05:30:07.652Z,74.54
2022-08-19T05:32:34.187Z,75.35
2022-08-19T05:35:00.744Z,75.69
2022-08-19T05:37:28.583Z,75.80
2022-08-19T05:39:55.762Z,74.64
2022-08-19T05:42:23.748Z,73.76
2022-08-19T05:44:50.572Z,73.54
2022-08-19T05:47:17.165Z,74.81
2022-08-19T05:49:43.742Z,74.59
2022-08-19T05:52:12.968Z,74.94
2022-08-19T05:54:42.380Z,75.01
2022-08-19T05:57:09.556Z,75.34
2022-08-19T05:59:39.326Z,75.01
2022-08-19T06:02:06.314Z,75.29
2022-08-19T06:04:32.967Z,75.47
2022-08-19T06:06:59.556Z,75.52
2022-08-19T06:09:26.283Z,75.66
2022-08-19T06:11:56.110Z,76.20
2022-08-19T06:14:27.753Z,75.80
2022-08-19T06:16:54.759Z,75.68
2022-08-19T06:19:22.827Z,75.94
2022-08-19T06:21:49.799Z,75.28
2022-08-19T06:24:18.063Z,76.12
2022-08-19T06:29:23.810Z,77.72
2022-08-19T06:31:52.971Z,76.99
2022-08-19T06:34:19.935Z,76.88
2022-08-19T06:36:48.399Z,76.62
2022-08-19T06:39:19.816Z,76.99
2022-08-19T06:41:51.805Z,76.97
2022-08-19T06:44:21.795Z,76.25
2022-08-19T06:46:53.552Z,76.11
2022-08-19T06:49:21.632Z,75.76
2022-08-19T06:51:51.904Z,75.34
2022-08-19T06:54:19.666Z,74.99
2022-08-19T06:56:47.092Z,75.13
2022-08-19T06:59:18.723Z,75.30
2022-08-19T07:01:49.887Z,75.04
2022-08-19T07:04:17.848Z,75.17
2022-08-19T07:06:45.739Z,75.13
2022-08-19T07:09:21.746Z,75.38
2022-08-19T07:11:50.212Z,75.26
2022-08-19T07:14:19.594Z,74.94
2022-08-19T07:16:48.180Z,75.06
2022-08-19T07:19:16.108Z,74.66
2022-08-19T07:21:45.544Z,74.94
2022-08-19T07:24:13.199Z,75.44
2022-08-19T07:26:42.194Z,75.85
2022-08-19T07:29:08.929Z,75.90
2022-08-19T07:31:37.551Z,75.67
2022-08-19T07:34:07.860Z,75.82
2022-08-19T07:36:36.143Z,75.36
2022-08-19T07:39:06.131Z,75.46
2022-08-19T07:41:33.059Z,75.20
2022-08-19T07:44:04.578Z,75.14
2022-08-19T07:46:35.156Z,76.45
2022-08-19T07:49:01.870Z,77.19
2022-08-19T07:51:36.543Z,76.92
2022-08-19T07:54:03.500Z,76.57
2022-08-19T07:56:30.038Z,76.35
2022-08-19T08:01:28.801Z,76.21
2022-08-19T08:04:15.187Z,76.31
2022-08-19T08:07:00.365Z,76.52
2022-08-19T08:09:32.805Z,77.41
2022-08-19T08:12:33.130Z,77.71
2022-08-19T08:14:58.414Z,78.14
2022-08-19T08:17:40.975Z,77.89
2022-08-19T08:20:14.383Z,77.62
2022-08-19T08:23:03.232Z,78.16
2022-08-19T08:25:32.361Z,79.59
2022-08-19T08:28:01.311Z,80.33
2022-08-19T08:30:31.162Z,80.41
2022-08-19T08:32:59.774Z,80.60
2022-08-19T08:35:26.361Z,81.25
2022-08-19T08:37:54.586Z,80.96
2022-08-19T08:41:04.520Z,81.41
2022-08-19T08:43:35.911Z,81.12
2022-08-19T08:46:04.630Z,81.72
2022-08-19T08:48:40.085Z,81.79
2022-08-19T08:51:11.005Z,81.15
2022-08-19T08:53:41.393Z,80.54
2022-08-19T08:56:08.456Z,79.83
2022-08-19T08:58:59.123Z,79.45
2022-08-19T09:01:30.334Z,79.16
2022-08-19T09:03:57.347Z,78.31
2022-08-19T09:06:47.820Z,78.00
2022-08-19T09:09:33.042Z,77.73
2022-08-19T09:12:26.818Z,77.20
2022-08-19T09:15:04.417Z,77.10
2022-08-19T09:17:32.093Z,76.91
2022-08-19T09:20:09.050Z,76.93
2022-08-19T09:22:40.278Z,76.62
2022-08-19T09:25:08.261Z,76.91
2022-08-19T09:27:53.902Z,76.59
2022-08-19T09:30:26.232Z,76.24
2022-08-19T09:32:56.172Z,76.04
2022-08-19T09:35:26.066Z,75.92
2022-08-19T09:37:57.403Z,75.95
2022-08-19T09:40:27.034Z,76.08
2022-08-19T09:42:58.095Z,75.84
2022-08-19T09:45:24.918Z,75.86
2022-08-19T09:47:54.362Z,75.83
2022-08-19T09:50:21.859Z,75.49
2022-08-19T09:52:57.011Z,75.75
2022-08-19T09:55:31.876Z,75.38
2022-08-19T09:58:02.307Z,75.44
2022-08-19T10:00:29.101Z,75.64
2022-08-19T10:02:55.696Z,75.46
2022-08-19T10:05:42.438Z,75.56
2022-08-19T10:08:13.578Z,75.38
2022-08-19T10:10:47.185Z,75.10
2022-08-19T10:13:15.761Z,75.26
2022-08-19T10:15:47.285Z,75.15
2022-08-19T10:18:14.422Z,74.95
2022-08-19T10:20:42.748Z,75.33
2022-08-19T10:23:10.232Z,75.11
2022-08-19T10:25:36.954Z,76.25
2022-08-19T10:28:05.287Z,76.43
2022-08-19T10:30:37.264Z,76.43
2022-08-19T10:33:08.541Z,77.41
2022-08-19T10:35:56.360Z,77.63
2022-08-19T10:38:31.359Z,78.54
2022-08-19T10:40:58.999Z,78.74
2022-08-19T10:43:25.957Z,78.79
2022-08-19T10:46:00.217Z,79.33
2022-08-19T10:48:26.974Z,80.46
2022-08-19T10:51:22.826Z,80.54
2022-08-19T10:53:50.971Z,80.15
2022-08-19T10:56:36.877Z,79.75
2022-08-19T10:59:04.272Z,80.71
2022-08-19T11:01:31.886Z,80.60
2022-08-19T11:03:58.541Z,81.53
2022-08-19T11:06:26.177Z,82.04
2022-08-19T11:08:54.000Z,82.02
2022-08-19T11:11:21.031Z,82.28
2022-08-19T11:13:48.256Z,82.65
2022-08-19T11:16:17.216Z,84.14
2022-08-19T11:18:51.265Z,83.54
2022-08-19T11:21:24.709Z,82.56
2022-08-19T11:23:52.763Z,81.93
2022-08-19T11:26:19.673Z,81.60
2022-08-19T11:28:46.373Z,81.26
2022-08-19T11:31:14.055Z,80.75
2022-08-19T11:33:40.879Z,80.48
2022-08-19T11:36:08.369Z,80.12
2022-08-19T11:38:36.526Z,80.17
2022-08-19T11:41:05.167Z,79.44
2022-08-19T11:43:37.141Z,78.82
2022-08-19T11:46:08.146Z,78.90
2022-08-19T11:48:35.266Z,78.70
2022-08-19T11:51:06.308Z,78.96
2022-08-19T11:53:33.059Z,79.09
2022-08-19T11:55:59.574Z,79.42
2022-08-19T11:58:26.096Z,79.32
2022-08-19T12:00:52.874Z,79.05
2022-08-19T12:03:20.501Z,79.10
2022-08-19T12:05:47.264Z,80.62
2022-08-19T12:08:13.928Z,80.32
2022-08-19T12:10:41.877Z,80.27
2022-08-19T12:13:08.555Z,80.20
2022-08-19T12:15:38.834Z,79.80
2022-08-19T12:18:05.675Z,79.40
2022-08-19T12:20:32.255Z,79.69
2022-08-19T12:23:02.105Z,79.53
2022-08-19T12:25:28.628Z,79.16
2022-08-19T12:27:57.458Z,78.91
2022-08-19T12:30:24.390Z,78.74
2022-08-19T12:32:52.172Z,79.06
2022-08-19T12:35:20.921Z,79.47
2022-08-19T12:37:57.032Z,79.54
2022-08-19T12:40:24.075Z,79.76
2022-08-19T12:42:53.327Z,79.71
2022-08-19T12:45:20.127Z,79.06
2022-08-19T12:47:47.729Z,79.21
2022-08-19T12:50:16.056Z,78.73
2022-08-19T12:52:43.414Z,78.29
2022-08-19T12:55:10.540Z,78.18
2022-08-19T12:57:37.183Z,77.70
2022-08-19T13:00:14.337Z,77.90
2022-08-19T13:02:42.789Z,77.84
2022-08-19T13:05:10.147Z,78.05
2022-08-19T13:07:38.393Z,78.11
2022-08-19T13:10:06.441Z,77.43
2022-08-19T13:12:33.099Z,77.36
2022-08-19T13:14:59.661Z,77.59
2022-08-19T13:17:27.031Z,77.19
2022-08-19T13:19:53.613Z,77.01
2022-08-19T13:22:20.159Z,76.98
2022-08-19T13:24:47.571Z,76.87
2022-08-19T13:27:14.343Z,76.92
2022-08-19T13:30:00.730Z,76.96
2022-08-19T13:32:46.128Z,77.34
2022-08-19T13:35:16.640Z,76.80
2022-08-19T13:37:43.718Z,76.95
2022-08-19T13:40:13.807Z,76.95
2022-08-19T13:42:41.098Z,76.46
2022-08-19T13:45:07.901Z,76.65
2022-08-19T13:47:43.423Z,76.54
2022-08-19T13:50:14.131Z,76.52
2022-08-19T13:52:40.855Z,76.58
2022-08-19T13:55:07.802Z,76.23
2022-08-19T13:57:34.373Z,76.53
2022-08-19T14:00:00.989Z,76.18
2022-08-19T14:02:27.584Z,76.37
2022-08-19T14:04:54.224Z,76.27
2022-08-19T14:07:21.211Z,76.27
2022-08-19T14:09:47.759Z,76.03
2022-08-19T14:12:19.100Z,75.62
2022-08-19T14:14:55.456Z,76.06
2022-08-19T14:17:22.496Z,75.67
2022-08-19T14:19:49.067Z,75.61
2022-08-19T14:22:15.633Z,75.72
2022-08-19T14:24:49.179Z,75.99
2022-08-19T14:27:15.799Z,75.35
2022-08-19T14:29:42.335Z,75.63
2022-08-19T14:32:11.544Z,75.56
2022-08-19T14:34:46.777Z,75.32
2022-08-19T14:37:17.031Z,75.60
2022-08-19T14:39:43.715Z,75.80
2022-08-19T14:42:11.475Z,75.67
2022-08-19T14:44:38.285Z,75.48
2022-08-19T14:47:05.060Z,75.65
2022-08-19T14:49:34.829Z,75.11
2022-08-19T14:52:08.332Z,75.43
2022-08-19T14:54:34.892Z,75.13
2022-08-19T14:57:01.445Z,75.56
2022-08-19T14:59:28.036Z,75.28
2022-08-19T15:01:54.685Z,75.22
2022-08-19T15:04:21.300Z,75.36
2022-08-19T15:06:47.863Z,75.36
2022-08-19T15:09:14.380Z,75.00
2022-08-19T15:11:40.949Z,75.17
2022-08-19T15:14:07.839Z,75.01
2022-08-19T15:16:34.602Z,75.00
2022-08-19T15:19:01.214Z,74.81
2022-08-19T15:21:28.352Z,75.04
2022-08-19T15:23:56.400Z,74.82
2022-08-19T15:26:22.994Z,74.84
2022-08-19T15:28:49.752Z,74.92
2022-08-19T15:31:25.552Z,74.82
2022-08-19T15:33:58.274Z,74.71
2022-08-19T15:36:26.172Z,75.03
2022-08-19T15:38:53.254Z,74.69
2022-08-19T15:41:24.819Z,74.90
2022-08-19T15:43:56.105Z,74.88
2022-08-19T15:46:27.172Z,74.88
2022-08-19T15:48:57.277Z,74.98
2022-08-19T15:51:27.459Z,74.70
2022-08-19T15:53:55.150Z,74.82
2022-08-19T15:56:25.517Z,74.46
2022-08-19T15:59:12.122Z,74.54
2022-08-19T16:01:57.206Z,74.48
2022-08-19T16:04:42.044Z,74.46
2022-08-19T16:07:10.267Z,74.49
2022-08-19T16:09:36.873Z,74.58
2022-08-19T16:12:04.890Z,74.29
2022-08-19T16:14:33.965Z,74.32
2022-08-19T16:17:00.509Z,74.40
2022-08-19T16:19:27.370Z,74.38
2022-08-19T16:21:54.965Z,74.22
2022-08-19T16:24:23.236Z,74.56
2022-08-19T16:26:49.899Z,74.09
2022-08-19T16:29:22.066Z,74.46
2022-08-19T16:32:04.921Z,75.36
2022-08-19T16:34:31.668Z,75.12
2022-08-19T16:36:58.236Z,74.83
2022-08-19T16:39:24.777Z,75.04
2022-08-19T16:41:51.568Z,74.99
2022-08-19T16:44:19.451Z,75.00
2022-08-19T16:46:47.104Z,74.95
2022-08-19T16:49:52.934Z,74.85
2022-08-19T16:52:12.310Z,74.62
2022-08-19T16:54:41.637Z,74.71
2022-08-19T16:57:11.844Z,74.51
2022-08-19T16:59:39.497Z,74.70
2022-08-19T17:02:14.757Z,74.23
2022-08-19T17:04:41.665Z,73.96
2022-08-19T17:07:09.775Z,74.24
2022-08-19T17:09:36.703Z,74.33
2022-08-19T17:12:04.811Z,74.04
2022-08-19T17:14:31.384Z,74.52
2022-08-19T17:16:57.908Z,74.20
2022-08-19T17:19:24.436Z,73.97
2022-08-19T17:21:51.237Z,73.97
2022-08-19T17:24:17.803Z,74.40
2022-08-19T17:26:44.569Z,74.36
2022-08-19T17:29:11.177Z,74.08
2022-08-19T17:31:38.171Z,73.88
2022-08-19T17:34:04.694Z,74.19
2022-08-19T17:36:32.387Z,74.14
2022-08-19T17:39:00.567Z,74.05
2022-08-19T17:41:27.905Z,73.76
2022-08-19T17:43:54.660Z,74.06
2022-08-19T17:46:21.376Z,73.75
2022-08-19T17:48:52.241Z,74.10
2022-08-19T17:51:23.329Z,74.20
2022-08-19T17:53:51.197Z,74.50
2022-08-19T17:56:18.091Z,74.43
2022-08-19T17:58:45.036Z,74.69
2022-08-19T18:01:24.645Z,74.82
2022-08-19T18:03:52.805Z,74.62
2022-08-19T18:06:19.345Z,74.79
2022-08-19T18:08:46.676Z,74.42
2022-08-19T18:11:13.410Z,74.47
2022-08-19T18:13:40.724Z,74.48
2022-08-19T18:16:12.225Z,74.87
2022-08-19T18:18:39.976Z,74.66
2022-08-19T18:21:06.690Z,74.84
2022-08-19T18:23:44.429Z,74.80
2022-08-19T18:26:12.286Z,74.60
2022-08-19T18:28:39.859Z,74.48
2022-08-19T18:31:16.782Z,74.82
2022-08-19T18:33:44.589Z,74.69
2022-08-19T18:36:11.326Z,74.72
2022-08-19T18:38:56.116Z,74.32
2022-08-19T18:41:41.065Z,74.45
2022-08-19T18:44:26.005Z,74.53
2022-08-19T18:47:13.927Z,74.39
2022-08-19T18:49:40.567Z,74.36
2022-08-19T18:52:07.206Z,74.26
2022-08-19T18:54:34.344Z,74.27
2022-08-19T18:57:01.080Z,74.77
2022-08-19T18:59:30.199Z,74.55
2022-08-19T19:01:57.709Z,74.76
2022-08-19T19:04:27.185Z,73.99
2022-08-19T19:06:53.707Z,74.41
2022-08-19T19:09:21.713Z,74.23
2022-08-19T19:11:59.391Z,74.36
2022-08-19T19:14:48.645Z,74.31
2022-08-19T19:17:16.218Z,74.27
2022-08-19T19:19:43.902Z,74.27
2022-08-19T19:22:13.751Z,74.34
2022-08-19T19:24:40.737Z,74.24
2022-08-19T19:27:08.397Z,74.49
2022-08-19T19:29:38.224Z,74.14
2022-08-19T19:32:09.148Z,74.28
2022-08-19T19:34:37.939Z,74.57
2022-08-19T19:37:04.553Z,74.48
2022-08-19T19:39:45.865Z,74.27
2022-08-19T19:42:20.092Z,74.17
2022-08-19T19:44:48.761Z,74.21
2022-08-19T19:47:15.774Z,74.26
2022-08-19T19:50:03.977Z,74.00
2022-08-19T19:52:28.989Z,74.37
2022-08-19T19:54:56.707Z,74.18
2022-08-19T19:57:26.830Z,74.13
2022-08-19T19:59:54.191Z,74.06
2022-08-19T20:02:22.026Z,74.36
2022-08-19T20:04:48.950Z,74.28
2022-08-19T20:07:15.552Z,74.21
2022-08-19T20:09:58.931Z,74.12
2022-08-19T20:12:26.523Z,74.29
2022-08-19T20:14:53.078Z,74.12
2022-08-19T20:17:20.694Z,74.13
2022-08-19T20:19:47.844Z,74.22
2022-08-19T20:22:14.544Z,74.41
2022-08-19T20:24:42.611Z,74.28
2022-08-19T20:27:10.227Z,74.32
2022-08-19T20:29:44.238Z,74.35
2022-08-19T20:32:12.390Z,74.29
2022-08-19T20:34:39.869Z,74.41
2022-08-19T20:37:09.174Z,74.19
2022-08-19T20:39:36.274Z,74.39
2022-08-19T20:42:03.164Z,74.20
2022-08-19T20:44:29.696Z,74.46
2022-08-19T20:47:00.455Z,73.99
2022-08-19T20:49:29.638Z,74.15
2022-08-19T20:51:56.491Z,74.34
2022-08-19T20:54:24.151Z,74.14
2022-08-19T20:56:51.093Z,74.19
2022-08-19T20:59:17.723Z,73.99
2022-08-19T21:01:44.248Z,74.32
2022-08-19T21:04:10.806Z,74.11
2022-08-19T21:06:38.568Z,74.04
2022-08-19T21:09:08.836Z,74.11
2022-08-19T21:11:36.103Z,74.02
2022-08-19T21:14:02.864Z,74.30
2022-08-19T21:16:29.416Z,74.12
2022-08-19T21:18:55.936Z,73.96
2022-08-19T21:21:22.504Z,74.19
2022-08-19T21:23:49.645Z,74.21
2022-08-19T21:26:16.315Z,74.01
2022-08-19T21:28:42.864Z,74.30
2022-08-19T21:31:10.574Z,74.15
2022-08-19T21:33:37.663Z,74.08
2022-08-19T21:36:04.512Z,74.21
2022-08-19T21:38:31.317Z,74.03
2022-08-19T21:40:57.903Z,74.12
2022-08-19T21:43:24.639Z,74.34
2022-08-19T21:45:51.188Z,73.90
2022-08-19T21:48:17.911Z,74.02
2022-08-19T21:50:46.002Z,74.21
2022-08-19T21:53:17.676Z,74.14
2022-08-19T21:55:44.835Z,74.15
2022-08-19T21:58:11.786Z,74.28
2022-08-19T22:00:38.627Z,73.91
2022-08-19T22:03:05.352Z,74.44
2022-08-19T22:05:33.310Z,74.37
2022-08-19T22:08:00.264Z,73.93
2022-08-19T22:10:27.917Z,73.96
2022-08-19T22:12:56.173Z,74.19
2022-08-19T22:15:23.287Z,74.12
2022-08-19T22:17:50.125Z,74.20
2022-08-19T22:20:19.056Z,74.19
2022-08-19T22:22:50.672Z,74.01
2022-08-19T22:25:32.257Z,74.31
2022-08-19T22:28:01.851Z,74.22
2022-08-19T22:30:33.322Z,74.23
2022-08-19T22:33:02.211Z,73.94
2022-08-19T22:35:31.489Z,73.98
2022-08-19T22:38:02.209Z,73.73
2022-08-19T22:40:29.700Z,73.87
2022-08-19T22:43:00.617Z,74.00
2022-08-19T22:45:27.434Z,74.01
2022-08-19T22:47:54.240Z,73.94
2022-08-19T22:50:20.928Z,73.87
2022-08-19T22:52:51.994Z,73.85
2022-08-19T22:55:18.836Z,73.70
2022-08-19T22:57:45.366Z,73.97
2022-08-19T23:00:13.452Z,74.09
2022-08-19T23:02:52.380Z,74.00
2022-08-19T23:05:21.928Z,73.98
2022-08-19T23:07:52.825Z,74.13
2022-08-19T23:10:26.891Z,73.74
2022-08-19T23:12:54.517Z,74.03
2022-08-19T23:15:24.259Z,74.04
2022-08-19T23:17:54.447Z,73.80
2022-08-19T23:20:21.790Z,73.75
2022-08-19T23:22:49.643Z,73.95
2022-08-19T23:25:19.071Z,73.70
2022-08-19T23:28:04.599Z,73.82
2022-08-19T23:30:31.908Z,73.98
2022-08-19T23:33:00.984Z,73.74
2022-08-19T23:35:31.760Z,74.06
2022-08-19T23:37:58.587Z,74.04
2022-08-19T23:40:25.128Z,73.98
2022-08-19T23:42:51.737Z,74.23
2022-08-19T23:45:23.586Z,74.08
2022-08-19T23:47:51.340Z,73.79
2022-08-19T23:50:20.450Z,73.79
2022-08-19T23:52:51.668Z,73.63
2022-08-19T23:55:19.449Z,74.19
2022-08-19T23:57:46.035Z,73.91
